Terminal Aerodrome Forecast
Issued by NWS Twin Cities, MN

Home | Current Version | Previous Version | Graphics & Text | Print | Product List | Glossary On
Versions: 1 2 3 4 5 6 7 8 9 10 11 12 13 14 15 16 17 18 19 20 21 22 23 24 25 26 27
000
FTUS43 KMPX 232100 AAA
TAFMSP
TAF AMD
KMSP 232100Z 2321/2424 03011G18KT P6SM SCT050 OVC100
     FM240300 04011G19KT 6SM -SN SCT020 OVC040
     FM240600 04012G23KT 4SM -SN OVC020
     FM241200 03014G25KT 3SM -SN BLSN OVC015
     FM241600 01017G26KT 1SM -SN BLSN OVC010
     FM242200 36018G28KT 3SM -SN BLSN OVC020=

USA.gov is the U.S. government's official web portal to all federal, state and local government web resources and services.